sensor_id;sensor_type;location;lat;lon;timestamp;temperature;humidity
16863;DHT22;52193;48.216;-1.698;2023-11-21T00:00:22;15.20;99.90
16863;DHT22;52193;48.216;-1.698;2023-11-21T00:02:49;15.20;99.90
16863;DHT22;52193;48.216;-1.698;2023-11-21T00:05:16;15.30;99.90
16863;DHT22;52193;48.216;-1.698;2023-11-21T00:07:43;15.30;99.90
16863;DHT22;52193;48.216;-1.698;2023-11-21T00:10:12;15.20;99.90
16863;DHT22;52193;48.216;-1.698;2023-11-21T00:12:42;15.30;99.90
16863;DHT22;52193;48.216;-1.698;2023-11-21T00:15:09;15.30;99.90
16863;DHT22;52193;48.216;-1.698;2023-11-21T00:17:37;15.20;99.90
16863;DHT22;52193;48.216;-1.698;2023-11-21T00:20:05;15.30;99.90
16863;DHT22;52193;48.216;-1.698;2023-11-21T00:22:33;15.30;99.90
16863;DHT22;52193;48.216;-1.698;2023-11-21T00:24:59;15.20;99.90
16863;DHT22;52193;48.216;-1.698;2023-11-21T00:27:28;15.30;99.90
16863;DHT22;52193;48.216;-1.698;2023-11-21T00:29:54;15.30;99.90
16863;DHT22;52193;48.216;-1.698;2023-11-21T00:32:21;15.20;99.90
16863;DHT22;52193;48.216;-1.698;2023-11-21T00:34:48;15.20;99.90
16863;DHT22;52193;48.216;-1.698;2023-11-21T00:37:15;15.20;99.90
16863;DHT22;52193;48.216;-1.698;2023-11-21T00:39:41;15.20;99.90
16863;DHT22;52193;48.216;-1.698;2023-11-21T00:42:09;15.20;99.90
16863;DHT22;52193;48.216;-1.698;2023-11-21T00:44:39;15.20;99.90
16863;DHT22;52193;48.216;-1.698;2023-11-21T00:47:05;15.20;99.90
16863;DHT22;52193;48.216;-1.698;2023-11-21T00:49:33;15.20;99.90
16863;DHT22;52193;48.216;-1.698;2023-11-21T00:52:00;15.20;99.90
16863;DHT22;52193;48.216;-1.698;2023-11-21T00:54:28;15.20;99.90
16863;DHT22;52193;48.216;-1.698;2023-11-21T00:56:55;15.20;99.90
16863;DHT22;52193;48.216;-1.698;2023-11-21T00:59:22;15.20;99.90
16863;DHT22;52193;48.216;-1.698;2023-11-21T01:01:51;15.20;99.90
16863;DHT22;52193;48.216;-1.698;2023-11-21T01:04:18;15.20;99.90
16863;DHT22;52193;48.216;-1.698;2023-11-21T01:06:45;15.20;99.90
16863;DHT22;52193;48.216;-1.698;2023-11-21T01:09:12;15.20;99.90
16863;DHT22;52193;48.216;-1.698;2023-11-21T01:11:39;15.20;99.90
16863;DHT22;52193;48.216;-1.698;2023-11-21T01:14:06;15.10;99.90
16863;DHT22;52193;48.216;-1.698;2023-11-21T01:16:34;15.10;99.90
16863;DHT22;52193;48.216;-1.698;2023-11-21T01:19:02;15.10;99.90
16863;DHT22;52193;48.216;-1.698;2023-11-21T01:21:30;15.10;99.90
16863;DHT22;52193;48.216;-1.698;2023-11-21T01:23:57;15.10;99.90
16863;DHT22;52193;48.216;-1.698;2023-11-21T01:26:24;15.10;99.90
16863;DHT22;52193;48.216;-1.698;2023-11-21T01:28:50;15.10;99.90
16863;DHT22;52193;48.216;-1.698;2023-11-21T01:31:17;15.10;99.90
16863;DHT22;52193;48.216;-1.698;2023-11-21T01:33:45;15.10;99.90
16863;DHT22;52193;48.216;-1.698;2023-11-21T01:36:14;15.10;99.90
16863;DHT22;52193;48.216;-1.698;2023-11-21T01:38:40;15.10;99.90
16863;DHT22;52193;48.216;-1.698;2023-11-21T01:41:07;15.00;99.90
16863;DHT22;52193;48.216;-1.698;2023-11-21T01:43:36;15.00;99.90
16863;DHT22;52193;48.216;-1.698;2023-11-21T01:46:03;15.00;99.90
16863;DHT22;52193;48.216;-1.698;2023-11-21T01:48:31;15.00;99.90
16863;DHT22;52193;48.216;-1.698;2023-11-21T01:50:59;15.00;99.90
16863;DHT22;52193;48.216;-1.698;2023-11-21T01:53:28;15.00;99.90
16863;DHT22;52193;48.216;-1.698;2023-11-21T01:55:55;15.00;99.90
16863;DHT22;52193;48.216;-1.698;2023-11-21T01:58:23;15.00;99.90
16863;DHT22;52193;48.216;-1.698;2023-11-21T02:00:50;15.00;99.90
16863;DHT22;52193;48.216;-1.698;2023-11-21T02:03:18;15.00;99.90
16863;DHT22;52193;48.216;-1.698;2023-11-21T02:05:45;15.00;99.90
16863;DHT22;52193;48.216;-1.698;2023-11-21T02:08:12;15.00;99.90
16863;DHT22;52193;48.216;-1.698;2023-11-21T02:10:40;14.90;99.90
16863;DHT22;52193;48.216;-1.698;2023-11-21T02:13:07;14.90;99.90
16863;DHT22;52193;48.216;-1.698;2023-11-21T02:15:33;14.90;99.90
16863;DHT22;52193;48.216;-1.698;2023-11-21T02:18:01;14.90;99.90
16863;DHT22;52193;48.216;-1.698;2023-11-21T02:20:28;14.90;99.90
16863;DHT22;52193;48.216;-1.698;2023-11-21T02:22:57;14.90;99.90
16863;DHT22;52193;48.216;-1.698;2023-11-21T02:25:24;14.90;99.90
16863;DHT22;52193;48.216;-1.698;2023-11-21T02:27:52;14.90;99.90
16863;DHT22;52193;48.216;-1.698;2023-11-21T02:30:20;14.90;99.90
16863;DHT22;52193;48.216;-1.698;2023-11-21T02:32:47;14.90;99.90
16863;DHT22;52193;48.216;-1.698;2023-11-21T02:35:15;14.90;99.90
16863;DHT22;52193;48.216;-1.698;2023-11-21T02:37:42;14.90;99.90
16863;DHT22;52193;48.216;-1.698;2023-11-21T02:40:11;14.80;99.90
16863;DHT22;52193;48.216;-1.698;2023-11-21T02:42:39;14.90;99.90
16863;DHT22;52193;48.216;-1.698;2023-11-21T02:45:07;14.90;99.90
16863;DHT22;52193;48.216;-1.698;2023-11-21T02:47:34;14.80;99.90
16863;DHT22;52193;48.216;-1.698;2023-11-21T02:50:00;14.80;99.90
16863;DHT22;52193;48.216;-1.698;2023-11-21T02:52:27;14.80;99.90
16863;DHT22;52193;48.216;-1.698;2023-11-21T02:54:54;14.80;99.90
16863;DHT22;52193;48.216;-1.698;2023-11-21T02:57:22;14.80;99.90
16863;DHT22;52193;48.216;-1.698;2023-11-21T02:59:49;14.80;99.90
16863;DHT22;52193;48.216;-1.698;2023-11-21T03:02:16;14.80;99.90
16863;DHT22;52193;48.216;-1.698;2023-11-21T03:04:43;14.80;99.90
16863;DHT22;52193;48.216;-1.698;2023-11-21T03:07:10;14.70;99.90
16863;DHT22;52193;48.216;-1.698;2023-11-21T03:09:36;14.80;99.90
16863;DHT22;52193;48.216;-1.698;2023-11-21T03:12:04;14.80;99.90
16863;DHT22;52193;48.216;-1.698;2023-11-21T03:14:33;14.80;99.90
16863;DHT22;52193;48.216;-1.698;2023-11-21T03:16:59;14.80;99.90
16863;DHT22;52193;48.216;-1.698;2023-11-21T03:19:26;14.80;99.90
16863;DHT22;52193;48.216;-1.698;2023-11-21T03:21:53;14.80;99.90
16863;DHT22;52193;48.216;-1.698;2023-11-21T03:24:20;14.70;99.90
16863;DHT22;52193;48.216;-1.698;2023-11-21T03:26:48;14.70;99.90
16863;DHT22;52193;48.216;-1.698;2023-11-21T03:29:15;14.70;99.90
16863;DHT22;52193;48.216;-1.698;2023-11-21T03:31:44;14.70;99.90
16863;DHT22;52193;48.216;-1.698;2023-11-21T03:34:15;14.70;99.90
16863;DHT22;52193;48.216;-1.698;2023-11-21T03:36:43;14.60;99.90
16863;DHT22;52193;48.216;-1.698;2023-11-21T03:39:11;14.70;99.90
16863;DHT22;52193;48.216;-1.698;2023-11-21T03:41:38;14.70;99.90
16863;DHT22;52193;48.216;-1.698;2023-11-21T03:44:05;14.70;99.90
16863;DHT22;52193;48.216;-1.698;2023-11-21T03:46:32;14.70;99.90
16863;DHT22;52193;48.216;-1.698;2023-11-21T03:49:00;14.70;99.90
16863;DHT22;52193;48.216;-1.698;2023-11-21T03:51:27;14.70;99.90
16863;DHT22;52193;48.216;-1.698;2023-11-21T03:53:54;14.70;99.90
16863;DHT22;52193;48.216;-1.698;2023-11-21T03:56:21;14.70;99.90
16863;DHT22;52193;48.216;-1.698;2023-11-21T03:58:48;14.70;99.90
16863;DHT22;52193;48.216;-1.698;2023-11-21T04:01:20;14.80;99.90
16863;DHT22;52193;48.216;-1.698;2023-11-21T04:03:48;14.80;99.90
16863;DHT22;52193;48.216;-1.698;2023-11-21T04:06:17;14.80;99.90
16863;DHT22;52193;48.216;-1.698;2023-11-21T04:08:43;14.80;99.90
16863;DHT22;52193;48.216;-1.698;2023-11-21T04:11:11;14.70;99.90
16863;DHT22;52193;48.216;-1.698;2023-11-21T04:13:38;14.80;99.90
16863;DHT22;52193;48.216;-1.698;2023-11-21T04:16:06;14.70;99.90
16863;DHT22;52193;48.216;-1.698;2023-11-21T04:18:33;14.80;99.90
16863;DHT22;52193;48.216;-1.698;2023-11-21T04:21:00;14.70;99.90
16863;DHT22;52193;48.216;-1.698;2023-11-21T04:23:29;14.70;99.90
16863;DHT22;52193;48.216;-1.698;2023-11-21T04:25:57;14.70;99.90
16863;DHT22;52193;48.216;-1.698;2023-11-21T04:28:24;14.70;99.90
16863;DHT22;52193;48.216;-1.698;2023-11-21T04:30:51;14.70;99.90
16863;DHT22;52193;48.216;-1.698;2023-11-21T04:33:18;14.70;99.90
16863;DHT22;52193;48.216;-1.698;2023-11-21T04:35:45;14.70;99.90
16863;DHT22;52193;48.216;-1.698;2023-11-21T04:38:12;14.70;99.90
16863;DHT22;52193;48.216;-1.698;2023-11-21T04:40:40;14.70;99.90
16863;DHT22;52193;48.216;-1.698;2023-11-21T04:43:07;14.70;99.90
16863;DHT22;52193;48.216;-1.698;2023-11-21T04:45:33;14.70;99.90
16863;DHT22;52193;48.216;-1.698;2023-11-21T04:48:00;14.70;99.90
16863;DHT22;52193;48.216;-1.698;2023-11-21T04:50:27;14.60;99.90
16863;DHT22;52193;48.216;-1.698;2023-11-21T04:52:54;14.60;99.90
16863;DHT22;52193;48.216;-1.698;2023-11-21T04:55:20;14.60;99.90
16863;DHT22;52193;48.216;-1.698;2023-11-21T04:57:49;14.60;99.90
16863;DHT22;52193;48.216;-1.698;2023-11-21T05:00:16;14.70;99.90
16863;DHT22;52193;48.216;-1.698;2023-11-21T05:02:43;14.70;99.90
16863;DHT22;52193;48.216;-1.698;2023-11-21T05:05:10;14.70;99.90
16863;DHT22;52193;48.216;-1.698;2023-11-21T05:07:39;14.70;99.90
16863;DHT22;52193;48.216;-1.698;2023-11-21T05:10:07;14.70;99.90
16863;DHT22;52193;48.216;-1.698;2023-11-21T05:12:37;14.70;99.90
16863;DHT22;52193;48.216;-1.698;2023-11-21T05:15:07;14.70;99.90
16863;DHT22;52193;48.216;-1.698;2023-11-21T05:17:35;14.70;99.90
16863;DHT22;52193;48.216;-1.698;2023-11-21T05:20:03;14.70;99.90
16863;DHT22;52193;48.216;-1.698;2023-11-21T05:22:34;14.70;99.90
16863;DHT22;52193;48.216;-1.698;2023-11-21T05:25:01;14.70;99.90
16863;DHT22;52193;48.216;-1.698;2023-11-21T05:27:29;14.80;99.90
16863;DHT22;52193;48.216;-1.698;2023-11-21T05:29:56;14.80;99.90
16863;DHT22;52193;48.216;-1.698;2023-11-21T05:32:24;14.70;99.90
16863;DHT22;52193;48.216;-1.698;2023-11-21T05:34:52;14.80;99.90
16863;DHT22;52193;48.216;-1.698;2023-11-21T05:37:19;14.80;99.90
16863;DHT22;52193;48.216;-1.698;2023-11-21T05:39:45;14.70;99.90
16863;DHT22;52193;48.216;-1.698;2023-11-21T05:42:12;14.70;99.90
16863;DHT22;52193;48.216;-1.698;2023-11-21T05:44:41;14.80;99.90
16863;DHT22;52193;48.216;-1.698;2023-11-21T05:47:09;14.80;99.90
16863;DHT22;52193;48.216;-1.698;2023-11-21T05:49:37;14.80;99.90
16863;DHT22;52193;48.216;-1.698;2023-11-21T05:52:04;14.80;99.90
16863;DHT22;52193;48.216;-1.698;2023-11-21T05:54:31;14.80;99.90
16863;DHT22;52193;48.216;-1.698;2023-11-21T05:56:59;14.80;99.90
16863;DHT22;52193;48.216;-1.698;2023-11-21T05:59:26;14.80;99.90
16863;DHT22;52193;48.216;-1.698;2023-11-21T06:01:53;14.80;99.90
16863;DHT22;52193;48.216;-1.698;2023-11-21T06:04:20;14.80;99.90
16863;DHT22;52193;48.216;-1.698;2023-11-21T06:06:51;14.80;99.90
16863;DHT22;52193;48.216;-1.698;2023-11-21T06:09:18;14.80;99.90
16863;DHT22;52193;48.216;-1.698;2023-11-21T06:11:46;14.80;99.90
16863;DHT22;52193;48.216;-1.698;2023-11-21T06:14:12;14.80;99.90
16863;DHT22;52193;48.216;-1.698;2023-11-21T06:16:40;14.80;99.90
16863;DHT22;52193;48.216;-1.698;2023-11-21T06:19:07;14.80;99.90
16863;DHT22;52193;48.216;-1.698;2023-11-21T06:21:34;14.80;99.90
16863;DHT22;52193;48.216;-1.698;2023-11-21T06:24:02;14.80;99.90
16863;DHT22;52193;48.216;-1.698;2023-11-21T06:26:29;14.80;99.90
16863;DHT22;52193;48.216;-1.698;2023-11-21T06:28:57;14.80;99.90
16863;DHT22;52193;48.216;-1.698;2023-11-21T06:31:24;14.80;99.90
16863;DHT22;52193;48.216;-1.698;2023-11-21T06:33:51;14.80;99.90
16863;DHT22;52193;48.216;-1.698;2023-11-21T06:36:18;14.80;99.90
16863;DHT22;52193;48.216;-1.698;2023-11-21T06:38:45;14.80;99.90
16863;DHT22;52193;48.216;-1.698;2023-11-21T06:41:13;14.80;99.90
16863;DHT22;52193;48.216;-1.698;2023-11-21T06:43:41;14.80;99.90
16863;DHT22;52193;48.216;-1.698;2023-11-21T06:46:11;14.80;99.90
16863;DHT22;52193;48.216;-1.698;2023-11-21T06:48:41;14.80;99.90
16863;DHT22;52193;48.216;-1.698;2023-11-21T06:51:08;14.80;99.90
16863;DHT22;52193;48.216;-1.698;2023-11-21T06:53:36;14.80;99.90
16863;DHT22;52193;48.216;-1.698;2023-11-21T06:56:03;14.80;99.90
16863;DHT22;52193;48.216;-1.698;2023-11-21T06:58:33;14.80;99.90
16863;DHT22;52193;48.216;-1.698;2023-11-21T07:01:00;14.80;99.90
16863;DHT22;52193;48.216;-1.698;2023-11-21T07:03:27;14.80;99.90
16863;DHT22;52193;48.216;-1.698;2023-11-21T07:05:54;14.80;99.90
16863;DHT22;52193;48.216;-1.698;2023-11-21T07:08:20;14.80;99.90
16863;DHT22;52193;48.216;-1.698;2023-11-21T07:10:48;14.80;99.90
16863;DHT22;52193;48.216;-1.698;2023-11-21T07:13:14;14.80;99.90
16863;DHT22;52193;48.216;-1.698;2023-11-21T07:15:43;14.80;99.90
16863;DHT22;52193;48.216;-1.698;2023-11-21T07:18:10;14.80;99.90
16863;DHT22;52193;48.216;-1.698;2023-11-21T07:20:37;14.70;99.90
16863;DHT22;52193;48.216;-1.698;2023-11-21T07:23:04;14.70;99.90
16863;DHT22;52193;48.216;-1.698;2023-11-21T07:25:31;14.80;99.90
16863;DHT22;52193;48.216;-1.698;2023-11-21T07:27:59;14.80;99.90
16863;DHT22;52193;48.216;-1.698;2023-11-21T07:30:26;14.80;99.90
16863;DHT22;52193;48.216;-1.698;2023-11-21T07:32:54;14.80;99.90
16863;DHT22;52193;48.216;-1.698;2023-11-21T07:35:21;14.80;99.90
16863;DHT22;52193;48.216;-1.698;2023-11-21T07:37:47;14.70;99.90
16863;DHT22;52193;48.216;-1.698;2023-11-21T07:40:15;14.70;99.90
16863;DHT22;52193;48.216;-1.698;2023-11-21T07:42:42;14.70;99.90
16863;DHT22;52193;48.216;-1.698;2023-11-21T07:45:09;14.70;99.90
16863;DHT22;52193;48.216;-1.698;2023-11-21T07:47:37;14.70;99.90
16863;DHT22;52193;48.216;-1.698;2023-11-21T07:50:07;14.70;99.90
16863;DHT22;52193;48.216;-1.698;2023-11-21T07:52:34;14.70;99.90
16863;DHT22;52193;48.216;-1.698;2023-11-21T07:55:01;14.70;99.90
16863;DHT22;52193;48.216;-1.698;2023-11-21T07:57:28;14.70;99.90
16863;DHT22;52193;48.216;-1.698;2023-11-21T07:59:55;14.70;99.90
16863;DHT22;52193;48.216;-1.698;2023-11-21T08:02:21;14.70;99.90
16863;DHT22;52193;48.216;-1.698;2023-11-21T08:04:48;14.70;99.90
16863;DHT22;52193;48.216;-1.698;2023-11-21T08:07:17;14.70;99.90
16863;DHT22;52193;48.216;-1.698;2023-11-21T08:09:44;14.70;99.90
16863;DHT22;52193;48.216;-1.698;2023-11-21T08:12:12;14.70;99.90
16863;DHT22;52193;48.216;-1.698;2023-11-21T08:14:40;14.70;99.90
16863;DHT22;52193;48.216;-1.698;2023-11-21T08:17:07;14.70;99.90
16863;DHT22;52193;48.216;-1.698;2023-11-21T08:19:35;14.60;99.90
16863;DHT22;52193;48.216;-1.698;2023-11-21T08:22:03;14.60;99.90
16863;DHT22;52193;48.216;-1.698;2023-11-21T08:24:31;14.60;99.90
16863;DHT22;52193;48.216;-1.698;2023-11-21T08:26:58;14.60;99.90
16863;DHT22;52193;48.216;-1.698;2023-11-21T08:29:25;14.60;99.90
16863;DHT22;52193;48.216;-1.698;2023-11-21T08:31:52;14.60;99.90
16863;DHT22;52193;48.216;-1.698;2023-11-21T08:34:19;14.60;99.90
16863;DHT22;52193;48.216;-1.698;2023-11-21T08:36:46;14.60;99.90
16863;DHT22;52193;48.216;-1.698;2023-11-21T08:39:13;14.50;99.90
16863;DHT22;52193;48.216;-1.698;2023-11-21T08:41:41;14.50;99.90
16863;DHT22;52193;48.216;-1.698;2023-11-21T08:44:08;14.50;99.90
16863;DHT22;52193;48.216;-1.698;2023-11-21T08:46:35;14.50;99.90
16863;DHT22;52193;48.216;-1.698;2023-11-21T08:49:02;14.50;99.90
16863;DHT22;52193;48.216;-1.698;2023-11-21T08:51:29;14.40;99.90
16863;DHT22;52193;48.216;-1.698;2023-11-21T08:53:57;14.40;99.90
16863;DHT22;52193;48.216;-1.698;2023-11-21T08:56:27;14.40;99.90
16863;DHT22;52193;48.216;-1.698;2023-11-21T08:58:55;14.40;99.90
16863;DHT22;52193;48.216;-1.698;2023-11-21T09:01:22;14.40;99.90
16863;DHT22;52193;48.216;-1.698;2023-11-21T09:03:50;14.50;99.90
16863;DHT22;52193;48.216;-1.698;2023-11-21T09:06:17;14.40;99.90
16863;DHT22;52193;48.216;-1.698;2023-11-21T09:08:45;14.50;99.90
16863;DHT22;52193;48.216;-1.698;2023-11-21T09:11:12;14.50;99.90
16863;DHT22;52193;48.216;-1.698;2023-11-21T09:13:39;14.50;99.90
16863;DHT22;52193;48.216;-1.698;2023-11-21T09:16:07;14.50;99.90
16863;DHT22;52193;48.216;-1.698;2023-11-21T09:18:34;14.60;99.90
16863;DHT22;52193;48.216;-1.698;2023-11-21T09:21:01;14.60;99.90
16863;DHT22;52193;48.216;-1.698;2023-11-21T09:23:30;14.60;99.90
16863;DHT22;52193;48.216;-1.698;2023-11-21T09:25:56;14.60;99.90
16863;DHT22;52193;48.216;-1.698;2023-11-21T09:28:25;14.70;99.90
16863;DHT22;52193;48.216;-1.698;2023-11-21T09:30:52;14.70;99.90
16863;DHT22;52193;48.216;-1.698;2023-11-21T09:33:21;14.80;99.90
16863;DHT22;52193;48.216;-1.698;2023-11-21T09:35:50;14.80;99.90
16863;DHT22;52193;48.216;-1.698;2023-11-21T09:38:18;14.90;99.90
16863;DHT22;52193;48.216;-1.698;2023-11-21T09:40:45;14.90;99.90
16863;DHT22;52193;48.216;-1.698;2023-11-21T09:43:16;14.90;99.90
16863;DHT22;52193;48.216;-1.698;2023-11-21T09:45:46;14.90;99.90
16863;DHT22;52193;48.216;-1.698;2023-11-21T09:48:14;15.00;99.90
16863;DHT22;52193;48.216;-1.698;2023-11-21T09:50:43;15.00;99.90
16863;DHT22;52193;48.216;-1.698;2023-11-21T09:53:17;15.00;99.90
16863;DHT22;52193;48.216;-1.698;2023-11-21T09:55:47;15.10;99.90
16863;DHT22;52193;48.216;-1.698;2023-11-21T09:58:16;15.10;99.90
16863;DHT22;52193;48.216;-1.698;2023-11-21T10:00:45;15.10;99.90
16863;DHT22;52193;48.216;-1.698;2023-11-21T10:03:13;15.10;99.90
16863;DHT22;52193;48.216;-1.698;2023-11-21T10:05:43;15.20;99.90
16863;DHT22;52193;48.216;-1.698;2023-11-21T10:08:12;15.20;99.90
16863;DHT22;52193;48.216;-1.698;2023-11-21T10:10:43;15.30;99.90
16863;DHT22;52193;48.216;-1.698;2023-11-21T10:13:12;15.30;99.90
16863;DHT22;52193;48.216;-1.698;2023-11-21T10:15:42;15.30;99.90
16863;DHT22;52193;48.216;-1.698;2023-11-21T10:18:14;15.40;99.90
16863;DHT22;52193;48.216;-1.698;2023-11-21T10:20:44;15.40;99.90
16863;DHT22;52193;48.216;-1.698;2023-11-21T10:23:18;15.40;99.90
16863;DHT22;52193;48.216;-1.698;2023-11-21T10:25:45;15.40;99.90
16863;DHT22;52193;48.216;-1.698;2023-11-21T10:28:12;15.40;99.90
16863;DHT22;52193;48.216;-1.698;2023-11-21T10:30:38;15.40;99.90
16863;DHT22;52193;48.216;-1.698;2023-11-21T10:33:07;15.50;99.90
16863;DHT22;52193;48.216;-1.698;2023-11-21T10:35:46;15.50;99.90
16863;DHT22;52193;48.216;-1.698;2023-11-21T10:38:16;15.50;99.90
16863;DHT22;52193;48.216;-1.698;2023-11-21T10:40:43;15.50;99.90
16863;DHT22;52193;48.216;-1.698;2023-11-21T10:43:12;15.60;99.90
16863;DHT22;52193;48.216;-1.698;2023-11-21T10:45:40;15.60;99.90
16863;DHT22;52193;48.216;-1.698;2023-11-21T10:48:09;15.60;99.90
16863;DHT22;52193;48.216;-1.698;2023-11-21T10:50:37;15.60;99.90
16863;DHT22;52193;48.216;-1.698;2023-11-21T10:53:05;15.60;99.90
16863;DHT22;52193;48.216;-1.698;2023-11-21T10:55:34;15.60;99.90
16863;DHT22;52193;48.216;-1.698;2023-11-21T10:58:02;15.60;99.90
16863;DHT22;52193;48.216;-1.698;2023-11-21T11:00:31;15.70;99.90
16863;DHT22;52193;48.216;-1.698;2023-11-21T11:02:59;15.70;99.90
16863;DHT22;52193;48.216;-1.698;2023-11-21T11:05:27;15.70;99.90
16863;DHT22;52193;48.216;-1.698;2023-11-21T11:07:58;15.70;99.90
16863;DHT22;52193;48.216;-1.698;2023-11-21T11:10:28;15.80;99.90
16863;DHT22;52193;48.216;-1.698;2023-11-21T11:12:56;15.80;99.90
16863;DHT22;52193;48.216;-1.698;2023-11-21T11:15:24;15.80;99.90
16863;DHT22;52193;48.216;-1.698;2023-11-21T11:17:52;15.80;99.90
16863;DHT22;52193;48.216;-1.698;2023-11-21T11:20:23;15.80;99.90
16863;DHT22;52193;48.216;-1.698;2023-11-21T11:23:04;15.90;99.90
16863;DHT22;52193;48.216;-1.698;2023-11-21T11:25:49;15.90;99.90
16863;DHT22;52193;48.216;-1.698;2023-11-21T11:28:21;15.90;99.90
16863;DHT22;52193;48.216;-1.698;2023-11-21T11:30:58;15.90;99.90
16863;DHT22;52193;48.216;-1.698;2023-11-21T11:33:34;15.90;99.90
16863;DHT22;52193;48.216;-1.698;2023-11-21T11:36:06;16.00;99.90
16863;DHT22;52193;48.216;-1.698;2023-11-21T11:38:35;16.00;99.90
16863;DHT22;52193;48.216;-1.698;2023-11-21T11:41:04;16.00;99.90
16863;DHT22;52193;48.216;-1.698;2023-11-21T11:43:32;16.00;99.90
16863;DHT22;52193;48.216;-1.698;2023-11-21T11:46:05;16.10;99.90
16863;DHT22;52193;48.216;-1.698;2023-11-21T11:48:35;16.10;99.90
16863;DHT22;52193;48.216;-1.698;2023-11-21T11:51:05;16.10;99.90
16863;DHT22;52193;48.216;-1.698;2023-11-21T11:53:39;16.10;99.90
16863;DHT22;52193;48.216;-1.698;2023-11-21T11:56:26;16.10;99.90
16863;DHT22;52193;48.216;-1.698;2023-11-21T11:58:55;16.10;99.90
16863;DHT22;52193;48.216;-1.698;2023-11-21T12:01:24;16.10;99.90
16863;DHT22;52193;48.216;-1.698;2023-11-21T12:04:27;16.20;99.90
16863;DHT22;52193;48.216;-1.698;2023-11-21T12:07:01;16.20;99.90
16863;DHT22;52193;48.216;-1.698;2023-11-21T12:09:30;16.20;99.90
16863;DHT22;52193;48.216;-1.698;2023-11-21T12:11:59;16.30;99.90
16863;DHT22;52193;48.216;-1.698;2023-11-21T12:14:26;16.30;99.90
16863;DHT22;52193;48.216;-1.698;2023-11-21T12:16:54;16.30;99.90
16863;DHT22;52193;48.216;-1.698;2023-11-21T12:19:21;16.30;99.90
16863;DHT22;52193;48.216;-1.698;2023-11-21T12:21:49;16.30;99.90
16863;DHT22;52193;48.216;-1.698;2023-11-21T12:24:16;16.30;99.90
16863;DHT22;52193;48.216;-1.698;2023-11-21T12:26:43;16.40;99.90
16863;DHT22;52193;48.216;-1.698;2023-11-21T12:29:12;16.30;99.90
16863;DHT22;52193;48.216;-1.698;2023-11-21T12:31:40;16.40;99.90
16863;DHT22;52193;48.216;-1.698;2023-11-21T12:34:07;16.40;99.90
16863;DHT22;52193;48.216;-1.698;2023-11-21T12:36:37;16.40;99.90
16863;DHT22;52193;48.216;-1.698;2023-11-21T12:39:04;16.40;99.90
16863;DHT22;52193;48.216;-1.698;2023-11-21T12:41:31;16.40;99.90
16863;DHT22;52193;48.216;-1.698;2023-11-21T12:43:58;16.40;99.90
16863;DHT22;52193;48.216;-1.698;2023-11-21T12:46:26;16.40;99.90
16863;DHT22;52193;48.216;-1.698;2023-11-21T12:48:56;16.40;99.90
16863;DHT22;52193;48.216;-1.698;2023-11-21T12:51:23;16.40;99.90
16863;DHT22;52193;48.216;-1.698;2023-11-21T12:53:51;16.40;99.90
16863;DHT22;52193;48.216;-1.698;2023-11-21T12:56:18;16.40;99.90
16863;DHT22;52193;48.216;-1.698;2023-11-21T12:58:46;16.40;99.90
16863;DHT22;52193;48.216;-1.698;2023-11-21T13:01:14;16.40;99.90
16863;DHT22;52193;48.216;-1.698;2023-11-21T13:03:47;16.40;99.90
16863;DHT22;52193;48.216;-1.698;2023-11-21T13:06:17;16.40;99.90
16863;DHT22;52193;48.216;-1.698;2023-11-21T13:08:44;16.40;99.90
16863;DHT22;52193;48.216;-1.698;2023-11-21T13:11:11;16.40;99.90
16863;DHT22;52193;48.216;-1.698;2023-11-21T13:13:41;16.30;99.90
16863;DHT22;52193;48.216;-1.698;2023-11-21T13:16:08;16.40;99.90
16863;DHT22;52193;48.216;-1.698;2023-11-21T13:18:35;16.40;99.90
16863;DHT22;52193;48.216;-1.698;2023-11-21T13:21:06;16.40;99.90
16863;DHT22;52193;48.216;-1.698;2023-11-21T13:23:37;16.40;99.90
16863;DHT22;52193;48.216;-1.698;2023-11-21T13:26:04;16.40;99.90
16863;DHT22;52193;48.216;-1.698;2023-11-21T13:28:32;16.40;99.90
16863;DHT22;52193;48.216;-1.698;2023-11-21T13:31:00;16.30;99.90
16863;DHT22;52193;48.216;-1.698;2023-11-21T13:33:35;16.30;99.90
16863;DHT22;52193;48.216;-1.698;2023-11-21T13:36:05;16.30;99.90
16863;DHT22;52193;48.216;-1.698;2023-11-21T13:38:33;16.30;99.90
16863;DHT22;52193;48.216;-1.698;2023-11-21T13:41:01;16.20;99.90
16863;DHT22;52193;48.216;-1.698;2023-11-21T13:43:33;16.20;99.90
16863;DHT22;52193;48.216;-1.698;2023-11-21T13:45:59;16.20;99.90
16863;DHT22;52193;48.216;-1.698;2023-11-21T13:48:33;16.20;99.90
16863;DHT22;52193;48.216;-1.698;2023-11-21T13:51:09;16.20;99.90
16863;DHT22;52193;48.216;-1.698;2023-11-21T13:53:42;16.20;99.90
16863;DHT22;52193;48.216;-1.698;2023-11-21T13:56:10;16.20;99.90
16863;DHT22;52193;48.216;-1.698;2023-11-21T13:58:38;16.20;99.90
16863;DHT22;52193;48.216;-1.698;2023-11-21T14:01:12;16.20;99.90
16863;DHT22;52193;48.216;-1.698;2023-11-21T14:03:58;16.10;99.90
16863;DHT22;52193;48.216;-1.698;2023-11-21T14:06:35;16.10;99.90
16863;DHT22;52193;48.216;-1.698;2023-11-21T14:09:13;16.20;99.90
16863;DHT22;52193;48.216;-1.698;2023-11-21T14:11:50;16.10;99.90
16863;DHT22;52193;48.216;-1.698;2023-11-21T14:14:19;16.20;99.90
16863;DHT22;52193;48.216;-1.698;2023-11-21T14:16:46;16.20;99.90
16863;DHT22;52193;48.216;-1.698;2023-11-21T14:19:13;16.20;99.90
16863;DHT22;52193;48.216;-1.698;2023-11-21T14:21:44;16.20;99.90
16863;DHT22;52193;48.216;-1.698;2023-11-21T14:24:11;16.20;99.90
16863;DHT22;52193;48.216;-1.698;2023-11-21T14:26:40;16.20;99.90
16863;DHT22;52193;48.216;-1.698;2023-11-21T14:29:08;16.20;99.90
16863;DHT22;52193;48.216;-1.698;2023-11-21T14:31:38;16.20;99.90
16863;DHT22;52193;48.216;-1.698;2023-11-21T14:34:04;16.20;99.90
16863;DHT22;52193;48.216;-1.698;2023-11-21T14:36:32;16.20;99.90
16863;DHT22;52193;48.216;-1.698;2023-11-21T14:39:01;16.10;99.90
16863;DHT22;52193;48.216;-1.698;2023-11-21T14:41:29;16.10;99.90
16863;DHT22;52193;48.216;-1.698;2023-11-21T14:43:56;16.10;99.90
16863;DHT22;52193;48.216;-1.698;2023-11-21T14:46:25;16.10;99.90
16863;DHT22;52193;48.216;-1.698;2023-11-21T14:48:52;16.10;99.90
16863;DHT22;52193;48.216;-1.698;2023-11-21T14:51:34;16.10;99.90
16863;DHT22;52193;48.216;-1.698;2023-11-21T14:54:21;16.00;99.90
16863;DHT22;52193;48.216;-1.698;2023-11-21T14:57:04;16.00;99.90
16863;DHT22;52193;48.216;-1.698;2023-11-21T14:59:32;16.00;99.90
16863;DHT22;52193;48.216;-1.698;2023-11-21T15:01:59;16.00;99.90
16863;DHT22;52193;48.216;-1.698;2023-11-21T15:04:40;16.00;99.90
16863;DHT22;52193;48.216;-1.698;2023-11-21T15:07:08;15.90;99.90
16863;DHT22;52193;48.216;-1.698;2023-11-21T15:09:35;16.00;99.90
16863;DHT22;52193;48.216;-1.698;2023-11-21T15:12:07;15.90;99.90
16863;DHT22;52193;48.216;-1.698;2023-11-21T15:14:44;15.90;99.90
16863;DHT22;52193;48.216;-1.698;2023-11-21T15:17:14;15.90;99.90
16863;DHT22;52193;48.216;-1.698;2023-11-21T15:19:48;15.90;99.90
16863;DHT22;52193;48.216;-1.698;2023-11-21T15:22:15;15.90;99.90